sensor_id;sensor_type;location;lat;lon;timestamp;pressure;altitude;pressure_sealevel;temperature;humidity
76819;BME280;65772;51.096;17.006;2023-09-07T00:01:16;101101.77;;;20.60;52.87
76819;BME280;65772;51.096;17.006;2023-09-07T00:03:47;101100.38;;;20.57;52.85
76819;BME280;65772;51.096;17.006;2023-09-07T00:06:18;101101.77;;;20.56;52.79
76819;BME280;65772;51.096;17.006;2023-09-07T00:08:48;101101.27;;;20.54;52.70
76819;BME280;65772;51.096;17.006;2023-09-07T00:11:19;101103.51;;;20.52;52.86
76819;BME280;65772;51.096;17.006;2023-09-07T00:13:49;101103.33;;;20.50;52.83
76819;BME280;65772;51.096;17.006;2023-09-07T00:16:20;101100.89;;;20.48;52.88
76819;BME280;65772;51.096;17.006;2023-09-07T00:18:51;101105.05;;;20.45;52.95
76819;BME280;65772;51.096;17.006;2023-09-07T00:21:21;101108.52;;;20.44;52.93
76819;BME280;65772;51.096;17.006;2023-09-07T00:23:52;101110.09;;;20.41;52.92
76819;BME280;65772;51.096;17.006;2023-09-07T00:26:27;101108.52;;;20.39;52.98
76819;BME280;65772;51.096;17.006;2023-09-07T00:28:57;101104.52;;;20.37;53.07
76819;BME280;65772;51.096;17.006;2023-09-07T00:31:28;101107.80;;;20.35;53.12
76819;BME280;65772;51.096;17.006;2023-09-07T00:33:59;101110.58;;;20.33;53.11
76819;BME280;65772;51.096;17.006;2023-09-07T00:36:29;101105.88;;;20.31;53.15
76819;BME280;65772;51.096;17.006;2023-09-07T00:39:00;101104.66;;;20.28;53.18
76819;BME280;65772;51.096;17.006;2023-09-07T00:41:31;101104.30;;;20.26;53.27
76819;BME280;65772;51.096;17.006;2023-09-07T00:44:02;101103.78;;;20.23;53.31
76819;BME280;65772;51.096;17.006;2023-09-07T00:46:33;101099.80;;;20.21;53.44
76819;BME280;65772;51.096;17.006;2023-09-07T00:49:03;101097.70;;;20.19;53.44
76819;BME280;65772;51.096;17.006;2023-09-07T00:51:34;101096.64;;;20.16;53.55
76819;BME280;65772;51.096;17.006;2023-09-07T00:54:06;101094.39;;;20.14;53.67
76819;BME280;65772;51.096;17.006;2023-09-07T00:56:37;101092.50;;;20.11;53.81
76819;BME280;65772;51.096;17.006;2023-09-07T00:59:12;101091.27;;;20.09;53.80
76819;BME280;65772;51.096;17.006;2023-09-07T01:01:43;101094.05;;;20.09;53.87
76819;BME280;65772;51.096;17.006;2023-09-07T01:04:14;101094.55;;;20.08;53.95
76819;BME280;65772;51.096;17.006;2023-09-07T01:06:50;101091.77;;;20.07;53.95
76819;BME280;65772;51.096;17.006;2023-09-07T01:09:25;101095.07;;;20.06;54.05
76819;BME280;65772;51.096;17.006;2023-09-07T01:11:57;101085.01;;;20.04;54.10
76819;BME280;65772;51.096;17.006;2023-09-07T01:14:27;101089.67;;;20.03;54.11
76819;BME280;65772;51.096;17.006;2023-09-07T01:16:58;101092.80;;;20.02;54.18
76819;BME280;65772;51.096;17.006;2023-09-07T01:19:29;101091.77;;;20.01;54.15
76819;BME280;65772;51.096;17.006;2023-09-07T01:22:00;101094.89;;;19.99;54.24
76819;BME280;65772;51.096;17.006;2023-09-07T01:24:32;101093.84;;;19.97;54.25
76819;BME280;65772;51.096;17.006;2023-09-07T01:27:04;101094.17;;;19.95;54.30
76819;BME280;65772;51.096;17.006;2023-09-07T01:29:36;101093.82;;;19.95;54.32
76819;BME280;65772;51.096;17.006;2023-09-07T01:32:07;101093.64;;;19.93;54.39
76819;BME280;65772;51.096;17.006;2023-09-07T01:34:39;101096.59;;;19.91;54.47
76819;BME280;65772;51.096;17.006;2023-09-07T01:37:11;101090.35;;;19.90;54.58
76819;BME280;65772;51.096;17.006;2023-09-07T01:39:41;101092.27;;;19.89;54.59
76819;BME280;65772;51.096;17.006;2023-09-07T01:42:12;101092.95;;;19.87;54.61
76819;BME280;65772;51.096;17.006;2023-09-07T01:44:42;101089.29;;;19.85;54.70
76819;BME280;65772;51.096;17.006;2023-09-07T01:47:13;101089.80;;;19.83;54.84
76819;BME280;65772;51.096;17.006;2023-09-07T01:49:44;101089.80;;;19.82;54.86
76819;BME280;65772;51.096;17.006;2023-09-07T01:52:15;101088.24;;;19.80;54.97
76819;BME280;65772;51.096;17.006;2023-09-07T01:54:47;101092.05;;;19.79;55.01
76819;BME280;65772;51.096;17.006;2023-09-07T01:57:18;101091.19;;;19.78;55.14
76819;BME280;65772;51.096;17.006;2023-09-07T01:59:48;101091.35;;;19.77;55.11
76819;BME280;65772;51.096;17.006;2023-09-07T02:02:19;101093.76;;;19.75;55.26
76819;BME280;65772;51.096;17.006;2023-09-07T02:04:50;101102.06;;;19.73;55.31
76819;BME280;65772;51.096;17.006;2023-09-07T02:07:21;101100.85;;;19.71;55.46
76819;BME280;65772;51.096;17.006;2023-09-07T02:09:51;101102.59;;;19.68;55.60
76819;BME280;65772;51.096;17.006;2023-09-07T02:12:22;101098.94;;;19.66;55.68
76819;BME280;65772;51.096;17.006;2023-09-07T02:14:53;101098.73;;;19.64;55.70
76819;BME280;65772;51.096;17.006;2023-09-07T02:17:23;101095.61;;;19.62;55.83
76819;BME280;65772;51.096;17.006;2023-09-07T02:19:54;101097.86;;;19.59;55.91
76819;BME280;65772;51.096;17.006;2023-09-07T02:22:24;101096.98;;;19.57;55.99
76819;BME280;65772;51.096;17.006;2023-09-07T02:24:55;101101.99;;;19.55;56.15
76819;BME280;65772;51.096;17.006;2023-09-07T02:27:25;101102.14;;;19.53;56.20
76819;BME280;65772;51.096;17.006;2023-09-07T02:29:56;101108.20;;;19.51;56.34
76819;BME280;65772;51.096;17.006;2023-09-07T02:32:27;101107.15;;;19.49;56.45
76819;BME280;65772;51.096;17.006;2023-09-07T02:34:58;101101.92;;;19.47;56.49
76819;BME280;65772;51.096;17.006;2023-09-07T02:37:28;101105.19;;;19.44;56.60
76819;BME280;65772;51.096;17.006;2023-09-07T02:39:59;101107.77;;;19.41;56.65
76819;BME280;65772;51.096;17.006;2023-09-07T02:42:30;101105.34;;;19.38;56.73
76819;BME280;65772;51.096;17.006;2023-09-07T02:45:01;101105.85;;;19.36;56.73
76819;BME280;65772;51.096;17.006;2023-09-07T02:47:32;101106.88;;;19.34;56.92
76819;BME280;65772;51.096;17.006;2023-09-07T02:50:03;101105.98;;;19.32;57.03
76819;BME280;65772;51.096;17.006;2023-09-07T02:52:33;101108.05;;;19.30;57.15
76819;BME280;65772;51.096;17.006;2023-09-07T02:55:05;101106.67;;;19.28;57.33
76819;BME280;65772;51.096;17.006;2023-09-07T02:57:37;101106.48;;;19.25;57.26
76819;BME280;65772;51.096;17.006;2023-09-07T03:00:09;101109.59;;;19.24;57.34
76819;BME280;65772;51.096;17.006;2023-09-07T03:02:41;101109.05;;;19.23;57.47
76819;BME280;65772;51.096;17.006;2023-09-07T03:05:12;101105.23;;;19.21;57.49
76819;BME280;65772;51.096;17.006;2023-09-07T03:07:46;101103.48;;;19.19;57.52
76819;BME280;65772;51.096;17.006;2023-09-07T03:10:18;101102.27;;;19.17;57.63
76819;BME280;65772;51.096;17.006;2023-09-07T03:12:48;101108.32;;;19.15;57.72
76819;BME280;65772;51.096;17.006;2023-09-07T03:15:19;101107.08;;;19.12;57.87
76819;BME280;65772;51.096;17.006;2023-09-07T03:17:50;101110.87;;;19.10;57.90
76819;BME280;65772;51.096;17.006;2023-09-07T03:20:20;101109.12;;;19.08;58.03
76819;BME280;65772;51.096;17.006;2023-09-07T03:22:52;101109.13;;;19.06;58.05
76819;BME280;65772;51.096;17.006;2023-09-07T03:25:22;101109.80;;;19.04;58.23
76819;BME280;65772;51.096;17.006;2023-09-07T03:27:53;101109.27;;;19.03;58.13
76819;BME280;65772;51.096;17.006;2023-09-07T03:30:24;101108.40;;;19.01;58.27
76819;BME280;65772;51.096;17.006;2023-09-07T03:32:55;101110.46;;;19.01;58.21
76819;BME280;65772;51.096;17.006;2023-09-07T03:35:26;101107.86;;;19.00;58.37
76819;BME280;65772;51.096;17.006;2023-09-07T03:37:56;101110.98;;;18.99;58.50
76819;BME280;65772;51.096;17.006;2023-09-07T03:40:27;101112.17;;;18.99;58.67
76819;BME280;65772;51.096;17.006;2023-09-07T03:42:57;101114.58;;;18.97;58.87
76819;BME280;65772;51.096;17.006;2023-09-07T03:45:28;101115.80;;;18.98;58.92
76819;BME280;65772;51.096;17.006;2023-09-07T03:48:00;101114.76;;;18.97;58.88
76819;BME280;65772;51.096;17.006;2023-09-07T03:50:31;101116.14;;;18.96;58.92
76819;BME280;65772;51.096;17.006;2023-09-07T03:53:01;101113.36;;;18.93;59.00
76819;BME280;65772;51.096;17.006;2023-09-07T03:55:41;101117.49;;;18.91;58.92
76819;BME280;65772;51.096;17.006;2023-09-07T03:58:12;101114.36;;;18.89;58.95
76819;BME280;65772;51.096;17.006;2023-09-07T04:00:43;101112.80;;;18.89;59.09
76819;BME280;65772;51.096;17.006;2023-09-07T04:03:14;101116.59;;;18.88;59.14
76819;BME280;65772;51.096;17.006;2023-09-07T04:05:45;101117.96;;;18.87;58.96
76819;BME280;65772;51.096;17.006;2023-09-07T04:08:16;101118.48;;;18.85;59.19
76819;BME280;65772;51.096;17.006;2023-09-07T04:10:46;101119.87;;;18.85;59.26
76819;BME280;65772;51.096;17.006;2023-09-07T04:13:17;101123.51;;;18.84;59.35
76819;BME280;65772;51.096;17.006;2023-09-07T04:15:47;101123.51;;;18.84;59.35
76819;BME280;65772;51.096;17.006;2023-09-07T04:18:18;101123.34;;;18.85;59.33
76819;BME280;65772;51.096;17.006;2023-09-07T04:20:50;101124.20;;;18.84;59.24
76819;BME280;65772;51.096;17.006;2023-09-07T04:23:20;101128.34;;;18.84;59.24
76819;BME280;65772;51.096;17.006;2023-09-07T04:25:51;101131.45;;;18.83;59.18
76819;BME280;65772;51.096;17.006;2023-09-07T04:28:22;101129.88;;;18.82;59.16
76819;BME280;65772;51.096;17.006;2023-09-07T04:30:52;101134.20;;;18.80;59.13
76819;BME280;65772;51.096;17.006;2023-09-07T04:33:23;101132.77;;;18.78;59.13
76819;BME280;65772;51.096;17.006;2023-09-07T04:35:54;101134.84;;;18.75;59.00
76819;BME280;65772;51.096;17.006;2023-09-07T04:38:24;101137.60;;;18.73;58.96
76819;BME280;65772;51.096;17.006;2023-09-07T04:40:55;101138.81;;;18.73;59.28
76819;BME280;65772;51.096;17.006;2023-09-07T04:43:25;101142.44;;;18.73;59.42
76819;BME280;65772;51.096;17.006;2023-09-07T04:45:56;101145.03;;;18.73;59.32
76819;BME280;65772;51.096;17.006;2023-09-07T04:48:27;101148.48;;;18.72;59.27
76819;BME280;65772;51.096;17.006;2023-09-07T04:51:01;101149.83;;;18.69;59.39
76819;BME280;65772;51.096;17.006;2023-09-07T04:53:34;101151.02;;;18.69;59.25
76819;BME280;65772;51.096;17.006;2023-09-07T04:56:06;101151.88;;;18.67;59.25
76819;BME280;65772;51.096;17.006;2023-09-07T04:58:37;101148.41;;;18.66;59.39
76819;BME280;65772;51.096;17.006;2023-09-07T05:01:10;101146.85;;;18.64;59.31
76819;BME280;65772;51.096;17.006;2023-09-07T05:03:43;101147.53;;;18.62;59.36
76819;BME280;65772;51.096;17.006;2023-09-07T05:06:14;101147.65;;;18.58;59.16
76819;BME280;65772;51.096;17.006;2023-09-07T05:08:44;101145.36;;;18.57;59.31
76819;BME280;65772;51.096;17.006;2023-09-07T05:11:15;101147.77;;;18.56;59.44
76819;BME280;65772;51.096;17.006;2023-09-07T05:13:46;101149.14;;;18.56;59.39
76819;BME280;65772;51.096;17.006;2023-09-07T05:16:16;101154.16;;;18.56;59.39
76819;BME280;65772;51.096;17.006;2023-09-07T05:18:47;101157.77;;;18.55;59.51
76819;BME280;65772;51.096;17.006;2023-09-07T05:21:18;101157.61;;;18.54;59.50
76819;BME280;65772;51.096;17.006;2023-09-07T05:23:49;101159.17;;;18.56;59.62
76819;BME280;65772;51.096;17.006;2023-09-07T05:26:23;101161.09;;;18.57;59.87
76819;BME280;65772;51.096;17.006;2023-09-07T05:28:54;101163.59;;;18.60;59.90
76819;BME280;65772;51.096;17.006;2023-09-07T05:31:25;101170.19;;;18.63;59.81
76819;BME280;65772;51.096;17.006;2023-09-07T05:33:56;101174.18;;;18.66;59.77
76819;BME280;65772;51.096;17.006;2023-09-07T05:36:26;101172.98;;;18.68;59.68
76819;BME280;65772;51.096;17.006;2023-09-07T05:38:57;101176.83;;;18.70;59.77
76819;BME280;65772;51.096;17.006;2023-09-07T05:41:28;101177.36;;;18.71;59.59
76819;BME280;65772;51.096;17.006;2023-09-07T05:43:59;101180.64;;;18.71;59.46
76819;BME280;65772;51.096;17.006;2023-09-07T05:46:29;101181.16;;;18.71;59.38
76819;BME280;65772;51.096;17.006;2023-09-07T05:49:01;101180.12;;;18.71;59.37
76819;BME280;65772;51.096;17.006;2023-09-07T05:51:31;101178.22;;;18.71;59.36
76819;BME280;65772;51.096;17.006;2023-09-07T05:54:02;101177.86;;;18.71;59.26
76819;BME280;65772;51.096;17.006;2023-09-07T05:56:32;101180.29;;;18.71;59.36
76819;BME280;65772;51.096;17.006;2023-09-07T05:59:03;101186.52;;;18.71;59.43
76819;BME280;65772;51.096;17.006;2023-09-07T06:01:34;101183.92;;;18.70;59.55
76819;BME280;65772;51.096;17.006;2023-09-07T06:04:05;101181.85;;;18.72;59.70
76819;BME280;65772;51.096;17.006;2023-09-07T06:06:36;101184.13;;;18.74;59.55
76819;BME280;65772;51.096;17.006;2023-09-07T06:09:07;101184.66;;;18.74;59.64
76819;BME280;65772;51.096;17.006;2023-09-07T06:11:37;101184.83;;;18.76;59.72
76819;BME280;65772;51.096;17.006;2023-09-07T06:14:09;101187.98;;;18.80;59.85
76819;BME280;65772;51.096;17.006;2023-09-07T06:16:39;101188.19;;;18.83;59.93
76819;BME280;65772;51.096;17.006;2023-09-07T06:19:10;101188.90;;;18.87;60.05
76819;BME280;65772;51.096;17.006;2023-09-07T06:21:41;101188.77;;;18.90;60.19
76819;BME280;65772;51.096;17.006;2023-09-07T06:24:12;101189.48;;;18.92;60.11
76819;BME280;65772;51.096;17.006;2023-09-07T06:26:44;101190.89;;;18.94;60.12
76819;BME280;65772;51.096;17.006;2023-09-07T06:29:15;101190.55;;;18.97;60.02
76819;BME280;65772;51.096;17.006;2023-09-07T06:31:46;101192.81;;;18.99;60.03
76819;BME280;65772;51.096;17.006;2023-09-07T06:34:20;101191.11;;;19.00;59.84
76819;BME280;65772;51.096;17.006;2023-09-07T06:36:51;101191.47;;;19.03;59.97
76819;BME280;65772;51.096;17.006;2023-09-07T06:39:22;101197.20;;;19.05;60.16
76819;BME280;65772;51.096;17.006;2023-09-07T06:41:53;101194.63;;;19.09;59.99
76819;BME280;65772;51.096;17.006;2023-09-07T06:44:27;101196.92;;;19.13;60.00
76819;BME280;65772;51.096;17.006;2023-09-07T06:46:57;101195.91;;;19.18;59.95
76819;BME280;65772;51.096;17.006;2023-09-07T06:49:28;101196.47;;;19.22;60.13
76819;BME280;65772;51.096;17.006;2023-09-07T06:51:59;101202.58;;;19.26;60.04
76819;BME280;65772;51.096;17.006;2023-09-07T06:54:31;101203.63;;;19.31;60.01
76819;BME280;65772;51.096;17.006;2023-09-07T06:57:02;101204.54;;;19.35;60.00
76819;BME280;65772;51.096;17.006;2023-09-07T06:59:32;101208.20;;;19.39;59.84
76819;BME280;65772;51.096;17.006;2023-09-07T07:02:03;101213.93;;;19.43;59.79
76819;BME280;65772;51.096;17.006;2023-09-07T07:04:35;101214.66;;;19.46;59.76
76819;BME280;65772;51.096;17.006;2023-09-07T07:07:06;101219.39;;;19.50;59.65
76819;BME280;65772;51.096;17.006;2023-09-07T07:09:37;101219.40;;;19.53;59.72
76819;BME280;65772;51.096;17.006;2023-09-07T07:12:08;101220.30;;;19.56;59.72
76819;BME280;65772;51.096;17.006;2023-09-07T07:14:39;101222.58;;;19.58;59.57
76819;BME280;65772;51.096;17.006;2023-09-07T07:17:10;101222.05;;;19.60;59.55
76819;BME280;65772;51.096;17.006;2023-09-07T07:19:41;101224.67;;;19.63;59.62
76819;BME280;65772;51.096;17.006;2023-09-07T07:22:14;101227.29;;;19.65;59.64
76819;BME280;65772;51.096;17.006;2023-09-07T07:24:47;101224.36;;;19.67;59.83
76819;BME280;65772;51.096;17.006;2023-09-07T07:27:18;101228.36;;;19.69;59.90
76819;BME280;65772;51.096;17.006;2023-09-07T07:29:50;101226.28;;;19.71;59.74
76819;BME280;65772;51.096;17.006;2023-09-07T07:32:21;101228.55;;;19.74;59.68
76819;BME280;65772;51.096;17.006;2023-09-07T07:34:52;101228.73;;;19.76;59.74
76819;BME280;65772;51.096;17.006;2023-09-07T07:37:23;101226.33;;;19.78;59.72
76819;BME280;65772;51.096;17.006;2023-09-07T07:39:54;101226.69;;;19.80;59.74
76819;BME280;65772;51.096;17.006;2023-09-07T07:42:25;101229.64;;;19.83;59.61
76819;BME280;65772;51.096;17.006;2023-09-07T07:44:56;101232.42;;;19.85;59.55
76819;BME280;65772;51.096;17.006;2023-09-07T07:47:29;101228.63;;;19.87;59.48
76819;BME280;65772;51.096;17.006;2023-09-07T07:49:59;101227.43;;;19.89;59.45
76819;BME280;65772;51.096;17.006;2023-09-07T07:52:32;101231.08;;;19.91;59.61
76819;BME280;65772;51.096;17.006;2023-09-07T07:55:04;101230.90;;;19.94;59.68
76819;BME280;65772;51.096;17.006;2023-09-07T07:57:35;101231.95;;;19.96;59.75
76819;BME280;65772;51.096;17.006;2023-09-07T08:00:08;101232.88;;;20.01;59.66
76819;BME280;65772;51.096;17.006;2023-09-07T08:02:45;101227.85;;;20.06;59.48
76819;BME280;65772;51.096;17.006;2023-09-07T08:05:16;101228.92;;;20.11;59.42
76819;BME280;65772;51.096;17.006;2023-09-07T08:07:47;101228.23;;;20.16;59.53
76819;BME280;65772;51.096;17.006;2023-09-07T08:10:18;101227.06;;;20.20;59.54
76819;BME280;65772;51.096;17.006;2023-09-07T08:12:48;101226.55;;;20.26;59.49
76819;BME280;65772;51.096;17.006;2023-09-07T08:15:21;101225.01;;;20.29;59.39
76819;BME280;65772;51.096;17.006;2023-09-07T08:17:54;101224.16;;;20.33;59.26
76819;BME280;65772;51.096;17.006;2023-09-07T08:20:27;101223.15;;;20.36;59.35
76819;BME280;65772;51.096;17.006;2023-09-07T08:22:59;101226.64;;;20.39;59.48
76819;BME280;65772;51.096;17.006;2023-09-07T08:25:34;101228.56;;;20.43;59.52
76819;BME280;65772;51.096;17.006;2023-09-07T08:28:06;101229.77;;;20.45;59.33
76819;BME280;65772;51.096;17.006;2023-09-07T08:30:36;101231.16;;;20.49;59.10
76819;BME280;65772;51.096;17.006;2023-09-07T08:33:07;101229.27;;;20.50;58.94
76819;BME280;65772;51.096;17.006;2023-09-07T08:35:38;101229.11;;;20.53;58.80
76819;BME280;65772;51.096;17.006;2023-09-07T08:38:13;101228.08;;;20.55;59.02
76819;BME280;65772;51.096;17.006;2023-09-07T08:40:44;101229.80;;;20.58;59.21
76819;BME280;65772;51.096;17.006;2023-09-07T08:43:15;101224.25;;;20.59;59.08
76819;BME280;65772;51.096;17.006;2023-09-07T08:45:59;101222.70;;;20.62;59.23
76819;BME280;65772;51.096;17.006;2023-09-07T08:48:35;101220.12;;;20.64;58.96
76819;BME280;65772;51.096;17.006;2023-09-07T08:51:04;101219.40;;;20.67;59.22
76819;BME280;65772;51.096;17.006;2023-09-07T08:53:38;101217.86;;;20.69;59.09
76819;BME280;65772;51.096;17.006;2023-09-07T08:56:09;101215.98;;;20.73;58.90
76819;BME280;65772;51.096;17.006;2023-09-07T08:58:41;101218.73;;;20.76;58.32
76819;BME280;65772;51.096;17.006;2023-09-07T09:01:14;101218.56;;;20.79;58.11
76819;BME280;65772;51.096;17.006;2023-09-07T09:03:46;101223.62;;;20.83;57.67
76819;BME280;65772;51.096;17.006;2023-09-07T09:06:20;101221.38;;;20.86;57.27
76819;BME280;65772;51.096;17.006;2023-09-07T09:08:52;101219.44;;;20.89;56.91
76819;BME280;65772;51.096;17.006;2023-09-07T09:11:24;101219.63;;;20.92;56.77
76819;BME280;65772;51.096;17.006;2023-09-07T09:13:53;101216.52;;;20.96;56.55
76819;BME280;65772;51.096;17.006;2023-09-07T09:16:24;101213.38;;;20.99;56.42
76819;BME280;65772;51.096;17.006;2023-09-07T09:18:56;101216.51;;;21.04;56.63
76819;BME280;65772;51.096;17.006;2023-09-07T09:21:26;101214.60;;;21.10;56.60
76819;BME280;65772;51.096;17.006;2023-09-07T09:23:57;101212.17;;;21.12;56.14
76819;BME280;65772;51.096;17.006;2023-09-07T09:26:29;101210.45;;;21.16;56.01
76819;BME280;65772;51.096;17.006;2023-09-07T09:29:01;101216.19;;;21.22;55.97
76819;BME280;65772;51.096;17.006;2023-09-07T09:31:30;101210.82;;;21.26;55.57
76819;BME280;65772;51.096;17.006;2023-09-07T09:34:01;101210.48;;;21.29;55.36
76819;BME280;65772;51.096;17.006;2023-09-07T09:36:35;101206.80;;;21.32;55.33
76819;BME280;65772;51.096;17.006;2023-09-07T09:39:07;101209.24;;;21.36;55.04
76819;BME280;65772;51.096;17.006;2023-09-07T09:41:39;101210.98;;;21.40;54.95
76819;BME280;65772;51.096;17.006;2023-09-07T09:44:10;101213.73;;;21.45;54.87
76819;BME280;65772;51.096;17.006;2023-09-07T09:46:39;101208.19;;;21.49;54.64
76819;BME280;65772;51.096;17.006;2023-09-07T09:49:11;101206.60;;;21.53;54.66
76819;BME280;65772;51.096;17.006;2023-09-07T09:51:43;101204.34;;;21.59;54.44
76819;BME280;65772;51.096;17.006;2023-09-07T09:54:17;101200.84;;;21.64;54.60
76819;BME280;65772;51.096;17.006;2023-09-07T09:56:48;101201.36;;;21.70;54.52
76819;BME280;65772;51.096;17.006;2023-09-07T09:59:19;101197.86;;;21.75;54.36
76819;BME280;65772;51.096;17.006;2023-09-07T10:01:49;101200.46;;;21.81;54.33
76819;BME280;65772;51.096;17.006;2023-09-07T10:04:23;101199.74;;;21.87;54.40
76819;BME280;65772;51.096;17.006;2023-09-07T10:06:58;101199.36;;;21.93;54.24
76819;BME280;65772;51.096;17.006;2023-09-07T10:09:33;101198.33;;;21.98;54.00
76819;BME280;65772;51.096;17.006;2023-09-07T10:12:10;101194.31;;;22.04;53.65
76819;BME280;65772;51.096;17.006;2023-09-07T10:14:46;101199.16;;;22.10;54.10
76819;BME280;65772;51.096;17.006;2023-09-07T10:17:26;101195.13;;;22.15;53.71
76819;BME280;65772;51.096;17.006;2023-09-07T10:20:05;101195.46;;;22.20;53.33
76819;BME280;65772;51.096;17.006;2023-09-07T10:22:36;101197.70;;;22.25;52.91
76819;BME280;65772;51.096;17.006;2023-09-07T10:25:07;101191.94;;;22.31;52.34
76819;BME280;65772;51.096;17.006;2023-09-07T10:27:47;101188.77;;;22.36;52.46
76819;BME280;65772;51.096;17.006;2023-09-07T10:30:18;101191.88;;;22.40;52.46
76819;BME280;65772;51.096;17.006;2023-09-07T10:32:53;101192.73;;;22.44;52.17
76819;BME280;65772;51.096;17.006;2023-09-07T10:35:23;101190.95;;;22.48;51.99
76819;BME280;65772;51.096;17.006;2023-09-07T10:37:58;101195.47;;;22.52;51.50
76819;BME280;65772;51.096;17.006;2023-09-07T10:40:30;101184.48;;;22.56;51.59
76819;BME280;65772;51.096;17.006;2023-09-07T10:43:04;101180.44;;;22.59;51.39
76819;BME280;65772;51.096;17.006;2023-09-07T10:45:35;101182.16;;;22.64;51.61
76819;BME280;65772;51.096;17.006;2023-09-07T10:48:07;101184.73;;;22.70;51.75
76819;BME280;65772;51.096;17.006;2023-09-07T10:50:45;101179.66;;;22.74;51.53
76819;BME280;65772;51.096;17.006;2023-09-07T10:53:26;101174.41;;;22.79;51.35
76819;BME280;65772;51.096;17.006;2023-09-07T10:55:58;101163.59;;;22.83;51.30
76819;BME280;65772;51.096;17.006;2023-09-07T10:58:31;101165.64;;;22.88;51.86
76819;BME280;65772;51.096;17.006;2023-09-07T11:01:02;101163.16;;;22.92;51.37
76819;BME280;65772;51.096;17.006;2023-09-07T11:03:33;101164.19;;;22.96;50.80
76819;BME280;65772;51.096;17.006;2023-09-07T11:06:08;101160.64;;;23.03;50.69
76819;BME280;65772;51.096;17.006;2023-09-07T11:08:39;101161.14;;;23.08;50.33
76819;BME280;65772;51.096;17.006;2023-09-07T11:11:10;101161.95;;;23.12;50.56
76819;BME280;65772;51.096;17.006;2023-09-07T11:13:41;101154.60;;;23.17;50.39
76819;BME280;65772;51.096;17.006;2023-09-07T11:16:12;101152.61;;;23.22;50.46
76819;BME280;65772;51.096;17.006;2023-09-07T11:18:42;101148.91;;;23.27;50.79
76819;BME280;65772;51.096;17.006;2023-09-07T11:21:13;101152.16;;;23.32;50.97
76819;BME280;65772;51.096;17.006;2023-09-07T11:23:46;101146.73;;;23.37;51.03
76819;BME280;65772;51.096;17.006;2023-09-07T11:26:16;101149.78;;;23.44;50.79
76819;BME280;65772;51.096;17.006;2023-09-07T11:28:47;101145.05;;;23.49;50.05
76819;BME280;65772;51.096;17.006;2023-09-07T11:31:21;101147.11;;;23.53;50.06
76819;BME280;65772;51.096;17.006;2023-09-07T11:33:53;101143.73;;;23.58;50.02
76819;BME280;65772;51.096;17.006;2023-09-07T11:36:25;101149.23;;;23.64;50.29
76819;BME280;65772;51.096;17.006;2023-09-07T11:38:57;101143.78;;;23.69;49.91
76819;BME280;65772;51.096;17.006;2023-09-07T11:41:27;101138.84;;;23.74;49.84
76819;BME280;65772;51.096;17.006;2023-09-07T11:43:58;101139.48;;;23.79;49.89
76819;BME280;65772;51.096;17.006;2023-09-07T11:46:28;101138.17;;;23.85;49.94
76819;BME280;65772;51.096;17.006;2023-09-07T11:48:59;101138.98;;;23.90;49.69
76819;BME280;65772;51.096;17.006;2023-09-07T11:51:29;101140.52;;;23.93;48.82
76819;BME280;65772;51.096;17.006;2023-09-07T11:54:01;101140.96;;;23.99;48.82
76819;BME280;65772;51.096;17.006;2023-09-07T11:56:32;101135.85;;;24.04;48.64
76819;BME280;65772;51.096;17.006;2023-09-07T11:59:07;101136.64;;;24.09;48.85
76819;BME280;65772;51.096;17.006;2023-09-07T12:01:37;101134.15;;;24.13;48.98
76819;BME280;65772;51.096;17.006;2023-09-07T12:04:09;101132.34;;;24.17;49.27
76819;BME280;65772;51.096;17.006;2023-09-07T12:06:39;101133.35;;;24.19;48.83
76819;BME280;65772;51.096;17.006;2023-09-07T12:09:10;101130.38;;;24.23;48.29
76819;BME280;65772;51.096;17.006;2023-09-07T12:11:40;101126.98;;;24.27;48.25
76819;BME280;65772;51.096;17.006;2023-09-07T12:14:13;101126.23;;;24.32;48.09
76819;BME280;65772;51.096;17.006;2023-09-07T12:16:43;101131.60;;;24.35;48.00
76819;BME280;65772;51.096;17.006;2023-09-07T12:19:14;101124.55;;;24.39;47.96
76819;BME280;65772;51.096;17.006;2023-09-07T12:21:44;101121.88;;;24.42;48.07
76819;BME280;65772;51.096;17.006;2023-09-07T12:24:18;101123.58;;;24.46;48.18
76819;BME280;65772;51.096;17.006;2023-09-07T12:26:48;101127.16;;;24.51;48.19
76819;BME280;65772;51.096;17.006;2023-09-07T12:29:19;101123.79;;;24.55;47.75
76819;BME280;65772;51.096;17.006;2023-09-07T12:31:50;101124.10;;;24.57;48.77
76819;BME280;65772;51.096;17.006;2023-09-07T12:34:20;101122.19;;;24.57;48.80
76819;BME280;65772;51.096;17.006;2023-09-07T12:36:51;101116.73;;;24.58;49.09
76819;BME280;65772;51.096;17.006;2023-09-07T12:39:22;101114.98;;;24.58;49.39
76819;BME280;65772;51.096;17.006;2023-09-07T12:41:52;101112.00;;;24.59;49.73
76819;BME280;65772;51.096;17.006;2023-09-07T12:44:23;101107.66;;;24.59;50.21
76819;BME280;65772;51.096;17.006;2023-09-07T12:46:53;101110.61;;;24.59;50.37
76819;BME280;65772;51.096;17.006;2023-09-07T12:49:24;101108.34;;;24.59;50.43
76819;BME280;65772;51.096;17.006;2023-09-07T12:51:54;101108.86;;;24.59;50.78
76819;BME280;65772;51.096;17.006;2023-09-07T12:54:25;101108.34;;;24.59;49.85
76819;BME280;65772;51.096;17.006;2023-09-07T12:56:55;101100.13;;;24.59;49.58
76819;BME280;65772;51.096;17.006;2023-09-07T12:59:26;101096.63;;;24.60;50.70
76819;BME280;65772;51.096;17.006;2023-09-07T13:01:56;101094.34;;;24.61;50.33